createdAt,value
2018-11-02T00:01:34.101Z,6.53
2018-11-02T00:04:03.039Z,6.33
2018-11-02T00:06:33.250Z,6.60
2018-11-02T00:09:02.075Z,6.47
2018-11-02T00:11:30.833Z,6.30
2018-11-02T00:13:59.573Z,6.58
2018-11-02T00:16:28.354Z,5.60
2018-11-02T00:18:57.139Z,5.95
2018-11-02T00:21:26.031Z,6.47
2018-11-02T00:23:54.814Z,6.10
2018-11-02T00:26:23.626Z,6.53
2018-11-02T00:28:52.461Z,6.35
2018-11-02T00:31:21.232Z,6.22
2018-11-02T00:33:50.047Z,6.72
2018-11-02T00:36:18.866Z,6.40
2018-11-02T00:38:47.733Z,6.55
2018-11-02T00:41:16.524Z,6.28
2018-11-02T00:43:45.446Z,6.30
2018-11-02T00:46:14.436Z,6.62
2018-11-02T00:48:43.230Z,6.85
2018-11-02T00:51:11.982Z,6.87
2018-11-02T00:53:40.759Z,6.58
2018-11-02T00:56:09.461Z,6.72
2018-11-02T00:58:38.226Z,6.40
2018-11-02T01:01:07.041Z,6.55
2018-11-02T01:03:35.867Z,6.20
2018-11-02T01:06:04.931Z,6.25
2018-11-02T01:08:33.704Z,6.20
2018-11-02T01:11:02.689Z,6.60
2018-11-02T01:13:31.451Z,7.25
2018-11-02T01:16:00.186Z,7.03
2018-11-02T01:18:29.065Z,6.80
2018-11-02T01:20:57.825Z,6.53
2018-11-02T01:23:26.643Z,7.22
2018-11-02T01:25:55.348Z,6.28
2018-11-02T01:28:24.184Z,7.22
2018-11-02T01:30:52.903Z,7.05
2018-11-02T01:33:26.871Z,6.58
2018-11-02T01:35:55.646Z,7.17
2018-11-02T01:38:24.337Z,6.78
2018-11-02T01:40:53.160Z,6.80
2018-11-02T01:43:21.917Z,7.58
2018-11-02T01:45:51.172Z,7.47
2018-11-02T01:48:19.901Z,7.12
2018-11-02T01:50:48.701Z,7.72
2018-11-02T01:53:17.585Z,7.47
2018-11-02T01:55:46.323Z,7.40
2018-11-02T01:58:15.044Z,6.83
2018-11-02T02:00:43.820Z,7.28
2018-11-02T02:03:12.600Z,7.20
2018-11-02T02:05:41.354Z,7.65
2018-11-02T02:08:10.117Z,7.60
2018-11-02T02:10:38.868Z,7.00
2018-11-02T02:13:07.779Z,7.45
2018-11-02T02:15:36.535Z,7.42
2018-11-02T02:18:05.304Z,7.35
2018-11-02T02:20:34.001Z,7.72
2018-11-02T02:23:03.113Z,7.28
2018-11-02T02:25:31.896Z,7.20
2018-11-02T02:28:00.609Z,7.12
2018-11-02T02:30:29.444Z,7.92
2018-11-02T02:32:58.160Z,7.15
2018-11-02T02:35:26.898Z,8.55
2018-11-02T02:37:55.724Z,7.30
2018-11-02T02:40:24.509Z,7.47
2018-11-02T02:42:53.434Z,7.12
2018-11-02T02:45:22.207Z,8.13
2018-11-02T02:47:50.948Z,7.03
2018-11-02T02:50:19.742Z,7.00
2018-11-02T02:52:48.495Z,8.15
2018-11-02T02:55:17.281Z,7.85
2018-11-02T02:57:46.093Z,7.08
2018-11-02T03:00:15.348Z,7.33
2018-11-02T03:02:44.450Z,7.70
2018-11-02T03:05:13.235Z,7.62
2018-11-02T03:07:42.587Z,7.60
2018-11-02T03:10:11.520Z,7.35
2018-11-02T03:12:40.357Z,7.40
2018-11-02T03:15:09.475Z,7.35
2018-11-02T03:17:38.645Z,7.70
2018-11-02T03:20:08.942Z,7.80
2018-11-02T03:22:38.070Z,7.83
2018-11-02T03:25:08.319Z,7.45
2018-11-02T03:27:37.049Z,7.30
2018-11-02T03:30:06.877Z,7.50
2018-11-02T03:32:35.674Z,7.72
2018-11-02T03:35:04.561Z,6.92
2018-11-02T03:37:33.346Z,8.35
2018-11-02T03:40:02.128Z,7.83
2018-11-02T03:42:30.894Z,7.72
2018-11-02T03:44:59.646Z,7.72
2018-11-02T03:47:28.400Z,6.95
2018-11-02T03:49:57.223Z,7.78
2018-11-02T03:52:25.973Z,7.70
2018-11-02T03:54:55.020Z,7.42
2018-11-02T03:57:23.792Z,7.78
2018-11-02T03:59:52.490Z,7.12
2018-11-02T04:02:21.229Z,7.37
2018-11-02T04:04:49.977Z,7.40
2018-11-02T04:07:18.674Z,7.72
2018-11-02T04:09:47.566Z,7.65
2018-11-02T04:12:16.151Z,7.25
2018-11-02T04:14:44.857Z,7.70
2018-11-02T04:17:13.581Z,7.60
2018-11-02T04:19:42.385Z,7.40
2018-11-02T04:22:11.125Z,8.20
2018-11-02T04:24:39.864Z,7.40
2018-11-02T04:27:08.654Z,7.28
2018-11-02T04:29:37.368Z,8.00
2018-11-02T04:32:06.398Z,6.75
2018-11-02T04:34:35.086Z,7.33
2018-11-02T04:37:04.171Z,7.00
2018-11-02T04:39:32.954Z,7.55
2018-11-02T04:42:01.735Z,6.78
2018-11-02T04:44:30.521Z,7.28
2018-11-02T04:46:59.336Z,7.60
2018-11-02T04:49:28.038Z,7.97
2018-11-02T04:51:56.795Z,7.00
2018-11-02T04:54:25.536Z,7.33
2018-11-02T04:56:54.379Z,7.70
2018-11-02T04:59:23.087Z,7.03
2018-11-02T05:01:51.858Z,6.85
2018-11-02T05:04:20.678Z,6.75
2018-11-02T05:06:49.441Z,7.03
2018-11-02T05:09:19.014Z,7.15
2018-11-02T05:11:48.190Z,7.80
2018-11-02T05:14:16.914Z,7.87
2018-11-02T05:16:45.658Z,8.18
2018-11-02T05:19:14.426Z,7.85
2018-11-02T05:21:43.198Z,7.85
2018-11-02T05:24:11.928Z,7.75
2018-11-02T05:26:40.837Z,7.97
2018-11-02T05:29:10.351Z,8.00
2018-11-02T05:31:39.163Z,7.92
2018-11-02T05:34:08.193Z,7.80
2018-11-02T05:36:37.004Z,7.92
2018-11-02T05:39:09.598Z,7.87
2018-11-02T05:41:38.371Z,8.80
2018-11-02T05:44:07.203Z,8.18
2018-11-02T05:46:36.323Z,8.48
2018-11-02T05:49:05.248Z,9.13
2018-11-02T05:51:34.045Z,8.38
2018-11-02T05:54:03.054Z,8.48
2018-11-02T05:56:31.814Z,8.50
2018-11-02T05:59:00.558Z,8.70
2018-11-02T06:01:29.387Z,8.38
2018-11-02T06:03:58.089Z,8.55
2018-11-02T06:06:26.864Z,7.83
2018-11-02T06:08:55.688Z,8.23
2018-11-02T06:11:24.424Z,7.47
2018-11-02T06:13:53.210Z,8.43
2018-11-02T06:16:21.982Z,8.55
2018-11-02T06:18:50.748Z,8.65
2018-11-02T06:21:19.592Z,8.08
2018-11-02T06:23:48.351Z,8.65
2018-11-02T06:26:17.096Z,7.78
2018-11-02T06:28:45.882Z,9.20
2018-11-02T06:31:14.592Z,8.23
2018-11-02T06:33:43.668Z,8.60
2018-11-02T06:36:12.409Z,8.40
2018-11-02T06:38:41.233Z,9.03
2018-11-02T06:41:09.975Z,8.35
2018-11-02T06:43:38.737Z,8.05
2018-11-02T06:46:07.565Z,8.10
2018-11-02T06:48:36.325Z,8.60
2018-11-02T06:51:05.361Z,8.38
2018-11-02T06:53:33.932Z,7.58
2018-11-02T06:56:02.663Z,9.43
2018-11-02T06:58:31.488Z,7.72
2018-11-02T07:01:00.242Z,8.30
2018-11-02T07:03:29.025Z,8.35
2018-11-02T07:05:58.208Z,7.65
2018-11-02T07:08:27.317Z,7.75
2018-11-02T07:10:56.059Z,8.13
2018-11-02T07:13:24.790Z,7.90
2018-11-02T07:15:53.812Z,9.20
2018-11-02T07:18:22.569Z,7.83
2018-11-02T07:20:51.333Z,7.92
2018-11-02T07:23:20.025Z,7.83
2018-11-02T07:25:48.793Z,7.92
2018-11-02T07:28:17.562Z,8.00
2018-11-02T07:30:46.379Z,7.92
2018-11-02T07:33:15.093Z,7.22
2018-11-02T07:35:43.826Z,7.80
2018-11-02T07:38:12.580Z,7.90
2018-11-02T07:40:41.334Z,7.35
2018-11-02T07:43:10.041Z,7.72
2018-11-02T07:45:38.841Z,7.87
2018-11-02T07:48:07.596Z,8.10
2018-11-02T07:50:36.362Z,7.72
2018-11-02T07:53:06.670Z,7.50
2018-11-02T07:55:35.408Z,7.45
2018-11-02T07:58:04.166Z,7.30
2018-11-02T08:00:32.984Z,6.85
2018-11-02T08:03:01.800Z,7.05
2018-11-02T08:05:30.562Z,7.47
2018-11-02T08:07:59.280Z,7.58
2018-11-02T08:10:28.085Z,7.42
2018-11-02T08:12:57.535Z,7.65
2018-11-02T08:15:26.272Z,7.75
2018-11-02T08:17:55.069Z,6.75
2018-11-02T08:20:23.797Z,7.10
2018-11-02T08:22:52.515Z,7.05
2018-11-02T08:25:21.261Z,7.75
2018-11-02T08:27:50.024Z,7.05
2018-11-02T08:30:18.783Z,7.12
2018-11-02T08:32:47.622Z,6.83
2018-11-02T08:35:16.408Z,6.97
2018-11-02T08:37:45.123Z,7.22
2018-11-02T08:40:14.333Z,7.67
2018-11-02T08:42:43.746Z,7.15
2018-11-02T08:45:12.496Z,7.60
2018-11-02T08:47:41.285Z,7.35
2018-11-02T08:50:11.134Z,7.10
2018-11-02T08:52:39.867Z,7.70
2018-11-02T08:55:08.638Z,7.70
2018-11-02T08:57:37.741Z,7.33
2018-11-02T09:00:08.068Z,6.47
2018-11-02T09:02:36.802Z,6.75
2018-11-02T09:05:06.344Z,6.92
2018-11-02T09:07:35.884Z,7.42
2018-11-02T09:10:05.858Z,7.28
2018-11-02T09:12:34.547Z,6.20
2018-11-02T09:15:03.328Z,7.17
2018-11-02T09:17:32.159Z,7.25
2018-11-02T09:20:00.903Z,6.90
2018-11-02T09:22:29.625Z,6.62
2018-11-02T09:24:59.762Z,6.97
2018-11-02T09:27:28.545Z,7.05
2018-11-02T09:29:57.311Z,7.50
2018-11-02T09:32:26.029Z,6.85
2018-11-02T09:34:54.771Z,7.28
2018-11-02T09:37:23.509Z,6.78
2018-11-02T09:39:52.346Z,7.30
2018-11-02T09:42:21.227Z,7.10
2018-11-02T09:44:50.137Z,7.15
2018-11-02T09:47:18.895Z,7.37
2018-11-02T09:49:47.667Z,7.12
2018-11-02T09:52:16.390Z,7.67
2018-11-02T09:54:45.137Z,7.58
2018-11-02T09:57:13.895Z,6.90
2018-11-02T09:59:42.736Z,7.80
2018-11-02T10:02:11.674Z,6.95
2018-11-02T10:04:40.392Z,6.22
2018-11-02T10:07:09.245Z,6.67
2018-11-02T10:09:37.998Z,6.72
2018-11-02T10:12:06.992Z,7.42
2018-11-02T10:14:35.863Z,7.30
2018-11-02T10:17:04.641Z,7.08
2018-11-02T10:19:33.438Z,7.05
2018-11-02T10:22:02.210Z,7.65
2018-11-02T10:24:30.980Z,6.62
2018-11-02T10:26:59.801Z,7.45
2018-11-02T10:29:28.707Z,7.70
2018-11-02T10:31:57.581Z,7.47
2018-11-02T10:34:26.432Z,6.67
2018-11-02T10:36:55.833Z,7.47
2018-11-02T10:39:24.722Z,7.78
2018-11-02T10:41:55.427Z,7.53
2018-11-02T10:44:33.797Z,7.95
2018-11-02T10:47:03.138Z,7.33
2018-11-02T10:49:32.153Z,7.28
2018-11-02T10:52:00.816Z,7.78
2018-11-02T10:54:29.661Z,7.78
2018-11-02T10:56:58.616Z,8.13
2018-11-02T10:59:27.329Z,7.75
2018-11-02T11:02:01.383Z,7.80
2018-11-02T11:04:30.313Z,8.08
2018-11-02T11:06:59.180Z,8.15
2018-11-02T11:09:28.073Z,8.88
2018-11-02T11:11:56.987Z,8.33
2018-11-02T11:14:25.773Z,7.62
2018-11-02T11:16:54.628Z,7.85
2018-11-02T11:19:23.389Z,8.68
2018-11-02T11:21:52.258Z,8.35
2018-11-02T11:24:21.033Z,8.25
2018-11-02T11:26:49.843Z,8.30
2018-11-02T11:29:18.813Z,9.13
2018-11-02T11:31:47.592Z,9.03
2018-11-02T11:34:16.476Z,9.68
2018-11-02T11:36:45.352Z,9.05
2018-11-02T11:39:14.920Z,9.18
2018-11-02T11:41:43.651Z,8.83
2018-11-02T11:44:12.454Z,8.85
2018-11-02T11:46:41.221Z,9.00
2018-11-02T11:49:10.742Z,8.78
2018-11-02T11:51:39.528Z,9.20
2018-11-02T11:54:08.382Z,9.43
2018-11-02T11:56:37.232Z,8.58
2018-11-02T11:59:06.158Z,8.80
2018-11-02T12:01:35.052Z,9.38
2018-11-02T12:04:04.093Z,9.60
2018-11-02T12:06:32.922Z,9.28
2018-11-02T12:09:01.718Z,9.33
2018-11-02T12:11:30.740Z,9.43
2018-11-02T12:13:59.582Z,9.35
2018-11-02T12:16:28.425Z,9.18
2018-11-02T12:18:57.238Z,9.53
2018-11-02T12:21:26.084Z,9.70
2018-11-02T12:23:54.918Z,9.18
2018-11-02T12:26:23.718Z,9.38
2018-11-02T12:28:52.705Z,9.18
2018-11-02T12:31:21.532Z,9.45
2018-11-02T12:33:50.428Z,9.85
2018-11-02T12:36:19.282Z,9.55
2018-11-02T12:38:48.026Z,9.00
2018-11-02T12:41:16.817Z,9.75
2018-11-02T12:43:45.699Z,9.23
2018-11-02T12:46:14.618Z,10.28
2018-11-02T12:48:43.442Z,9.63
2018-11-02T12:51:12.128Z,9.73
2018-11-02T12:53:40.926Z,9.30
2018-11-02T12:56:09.749Z,9.68
2018-11-02T12:58:38.557Z,9.80
2018-11-02T13:01:07.358Z,9.35
2018-11-02T13:03:36.182Z,8.58
2018-11-02T13:06:05.803Z,9.60
2018-11-02T13:08:34.621Z,8.78
2018-11-02T13:11:03.470Z,8.68
2018-11-02T13:13:32.332Z,9.10
2018-11-02T13:16:01.182Z,9.35
2018-11-02T13:18:29.925Z,9.53
2018-11-02T13:20:58.709Z,9.43
2018-11-02T13:23:27.465Z,9.50
2018-11-02T13:25:56.283Z,9.43
2018-11-02T13:28:25.707Z,8.95
2018-11-02T13:30:54.548Z,10.00
2018-11-02T13:33:23.301Z,9.00
2018-11-02T13:35:52.045Z,9.08
2018-11-02T13:38:20.790Z,9.58
2018-11-02T13:40:49.576Z,9.33
2018-11-02T13:43:18.557Z,9.43
2018-11-02T13:45:47.202Z,9.05
2018-11-02T13:48:15.963Z,9.38
2018-11-02T13:50:44.830Z,8.90
2018-11-02T13:53:14.215Z,9.08
2018-11-02T13:55:43.301Z,8.73
2018-11-02T13:58:12.018Z,9.30
2018-11-02T14:00:40.785Z,8.95
2018-11-02T14:03:09.593Z,8.98
2018-11-02T14:05:38.313Z,8.35
2018-11-02T14:08:07.133Z,8.80
2018-11-02T14:10:35.904Z,9.43
2018-11-02T14:13:05.165Z,10.10
2018-11-02T14:15:34.739Z,9.55
2018-11-02T14:18:03.743Z,9.53
2018-11-02T14:20:32.547Z,10.13
2018-11-02T14:23:01.346Z,9.95
2018-11-02T14:25:30.092Z,10.18
2018-11-02T14:27:58.891Z,10.00
2018-11-02T14:30:27.716Z,10.90
2018-11-02T14:32:56.480Z,10.32
2018-11-02T14:35:25.278Z,9.70
2018-11-02T14:37:54.303Z,9.58
2018-11-02T14:40:23.083Z,10.03
2018-11-02T14:42:51.877Z,9.90
2018-11-02T14:45:20.684Z,9.60
2018-11-02T14:47:49.519Z,9.43
2018-11-02T14:50:18.285Z,9.43
2018-11-02T14:52:46.994Z,9.33
2018-11-02T14:55:15.814Z,9.18
2018-11-02T14:57:44.607Z,8.38
2018-11-02T15:00:13.373Z,9.63
2018-11-02T15:02:42.613Z,9.68
2018-11-02T15:05:12.761Z,9.53
2018-11-02T15:07:42.226Z,9.60
2018-11-02T15:10:11.085Z,9.15
2018-11-02T15:12:40.468Z,9.00
2018-11-02T15:15:09.637Z,9.05
2018-11-02T15:17:38.853Z,8.73
2018-11-02T15:20:09.969Z,8.65
2018-11-02T15:22:38.982Z,8.68
2018-11-02T15:25:08.154Z,9.35
2018-11-02T15:27:36.934Z,8.78
2018-11-02T15:30:08.282Z,8.98
2018-11-02T15:32:37.180Z,8.08
2018-11-02T15:35:07.159Z,8.85
2018-11-02T15:37:36.010Z,8.90
2018-11-02T15:40:05.407Z,8.45
2018-11-02T15:42:34.202Z,8.40
2018-11-02T15:45:03.044Z,8.63
2018-11-02T15:47:31.808Z,8.35
2018-11-02T15:50:00.620Z,8.38
2018-11-02T15:52:29.364Z,8.23
2018-11-02T15:54:58.119Z,8.15
2018-11-02T15:57:26.860Z,7.97
2018-11-02T15:59:55.680Z,8.08
2018-11-02T16:02:24.443Z,7.78
2018-11-02T16:04:53.263Z,8.38
2018-11-02T16:07:22.093Z,8.05
2018-11-02T16:09:50.855Z,7.90
2018-11-02T16:12:19.638Z,7.92
2018-11-02T16:14:48.499Z,8.23
2018-11-02T16:17:17.262Z,8.03
2018-11-02T16:19:46.026Z,6.85
2018-11-02T16:22:14.910Z,7.42
2018-11-02T16:24:43.801Z,8.48
2018-11-02T16:27:12.597Z,7.87
2018-11-02T16:29:41.402Z,8.50
2018-11-02T16:32:10.247Z,7.97
2018-11-02T16:34:39.039Z,8.58
2018-11-02T16:37:07.933Z,8.23
2018-11-02T16:39:36.791Z,8.48
2018-11-02T16:42:06.634Z,8.05
2018-11-02T16:44:35.443Z,7.40
2018-11-02T16:47:04.517Z,7.62
2018-11-02T16:49:33.284Z,7.10
2018-11-02T16:52:02.120Z,7.70
2018-11-02T16:54:30.913Z,8.08
2018-11-02T16:56:59.685Z,7.72
2018-11-02T16:59:28.620Z,8.35
2018-11-02T17:01:57.370Z,8.45
2018-11-02T17:04:26.141Z,7.95
2018-11-02T17:06:55.189Z,7.85
2018-11-02T17:09:23.937Z,7.40
2018-11-02T17:11:52.910Z,7.72
2018-11-02T17:14:21.722Z,7.72
2018-11-02T17:16:50.540Z,7.47
2018-11-02T17:19:19.291Z,7.70
2018-11-02T17:21:48.200Z,7.20
2018-11-02T17:24:17.038Z,7.75
2018-11-02T17:26:45.884Z,7.62
2018-11-02T17:29:14.719Z,8.13
2018-11-02T17:31:43.558Z,8.53
2018-11-02T17:34:12.382Z,7.53
2018-11-02T17:36:41.317Z,7.80
2018-11-02T17:39:11.145Z,7.28
2018-11-02T17:41:40.056Z,8.25
2018-11-02T17:44:09.389Z,7.78
2018-11-02T17:46:38.210Z,7.12
2018-11-02T17:49:07.044Z,7.62
2018-11-02T17:51:35.833Z,7.37
2018-11-02T17:54:04.972Z,7.70
2018-11-02T17:56:33.770Z,6.95
2018-11-02T17:59:02.709Z,7.12
2018-11-02T18:01:31.580Z,7.72
2018-11-02T18:04:00.373Z,7.45
2018-11-02T18:06:29.202Z,6.85
2018-11-02T18:08:58.045Z,7.58
2018-11-02T18:11:26.801Z,8.35
2018-11-02T18:13:55.735Z,7.33
2018-11-02T18:16:24.603Z,7.35
2018-11-02T18:18:53.455Z,7.67
2018-11-02T18:21:22.198Z,7.20
2018-11-02T18:23:51.019Z,7.42
2018-11-02T18:26:19.930Z,6.67
2018-11-02T18:28:49.103Z,8.10
2018-11-02T18:31:17.973Z,7.62
2018-11-02T18:33:46.773Z,7.10
2018-11-02T18:36:15.582Z,6.90
2018-11-02T18:38:44.474Z,7.50
2018-11-02T18:41:13.338Z,7.92
2018-11-02T18:43:42.131Z,6.37
2018-11-02T18:46:10.917Z,6.83
2018-11-02T18:48:39.762Z,7.37
2018-11-02T18:51:08.605Z,6.72
2018-11-02T18:53:37.806Z,7.12
2018-11-02T18:56:06.597Z,6.92
2018-11-02T18:58:35.399Z,6.47
2018-11-02T19:01:04.193Z,6.40
2018-11-02T19:03:33.053Z,6.87
2018-11-02T19:06:01.802Z,6.00
2018-11-02T19:08:30.550Z,6.67
2018-11-02T19:10:59.317Z,6.83
2018-11-02T19:13:28.228Z,6.62
2018-11-02T19:15:56.973Z,6.12
2018-11-02T19:18:25.714Z,6.28
2018-11-02T19:20:54.482Z,6.80
2018-11-02T19:23:23.290Z,6.00
2018-11-02T19:25:52.078Z,5.95
2018-11-02T19:28:20.907Z,6.37
2018-11-02T19:30:49.699Z,6.75
2018-11-02T19:33:18.532Z,5.53
2018-11-02T19:35:47.345Z,5.67
2018-11-02T19:38:16.158Z,6.28
2018-11-02T19:40:44.962Z,6.28
2018-11-02T19:43:14.613Z,5.95
2018-11-02T19:45:43.498Z,5.92
2018-11-02T19:48:12.429Z,5.70
2018-11-02T19:50:41.386Z,6.30
2018-11-02T19:53:10.093Z,6.33
2018-11-02T19:55:38.968Z,6.37
2018-11-02T19:58:07.746Z,6.40
2018-11-02T20:00:36.584Z,5.70
2018-11-02T20:03:05.520Z,5.85
2018-11-02T20:05:34.393Z,5.85
2018-11-02T20:08:03.357Z,6.60
2018-11-02T20:10:32.113Z,5.97
2018-11-02T20:13:00.929Z,6.30
2018-11-02T20:15:29.749Z,6.17
2018-11-02T20:17:58.690Z,5.95
2018-11-02T20:20:27.499Z,5.45
2018-11-02T20:22:56.482Z,5.92
2018-11-02T20:25:25.276Z,6.03
2018-11-02T20:27:54.120Z,5.90
2018-11-02T20:30:22.919Z,6.03
2018-11-02T20:32:51.799Z,5.97
2018-11-02T20:35:20.727Z,5.80
2018-11-02T20:37:49.542Z,5.60
2018-11-02T20:40:19.269Z,4.85
2018-11-02T20:42:48.947Z,5.90
2018-11-02T20:45:18.116Z,5.28
2018-11-02T20:47:55.402Z,4.97
2018-11-02T20:50:24.302Z,5.15
2018-11-02T20:52:53.608Z,5.15
2018-11-02T20:55:22.479Z,5.22
2018-11-02T20:57:51.344Z,4.75
2018-11-02T21:00:21.664Z,5.10
2018-11-02T21:02:50.677Z,5.12
2018-11-02T21:05:20.118Z,4.67
2018-11-02T21:07:49.458Z,4.95
2018-11-02T21:10:19.365Z,4.78
2018-11-02T21:12:48.479Z,4.95
2018-11-02T21:15:21.872Z,4.35
2018-11-02T21:17:51.199Z,4.53
2018-11-02T21:20:21.525Z,4.35
2018-11-02T21:22:50.345Z,5.10
2018-11-02T21:25:19.238Z,4.78
2018-11-02T21:27:48.529Z,4.60
2018-11-02T21:30:18.908Z,4.87
2018-11-02T21:32:48.882Z,5.15
2018-11-02T21:35:18.374Z,4.80
2018-11-02T21:37:47.568Z,4.72
2018-11-02T21:40:18.006Z,4.47
2018-11-02T21:42:47.040Z,5.03
2018-11-02T21:45:17.481Z,5.45
2018-11-02T21:47:46.740Z,5.03
2018-11-02T21:50:16.203Z,4.53
2018-11-02T21:52:45.140Z,4.67
2018-11-02T21:55:14.087Z,4.60
2018-11-02T21:57:42.887Z,4.75
2018-11-02T22:00:18.312Z,4.62
2018-11-02T22:02:47.540Z,4.87
2018-11-02T22:05:16.496Z,4.30
2018-11-02T22:07:46.514Z,4.80
2018-11-02T22:10:15.787Z,4.28
2018-11-02T22:12:44.535Z,4.00
2018-11-02T22:15:13.389Z,4.20
2018-11-02T22:17:42.411Z,4.67
2018-11-02T22:20:12.648Z,4.30
2018-11-02T22:22:41.714Z,4.08
2018-11-02T22:25:11.776Z,4.40
2018-11-02T22:27:40.580Z,3.90
2018-11-02T22:30:11.719Z,3.83
2018-11-02T22:32:40.879Z,3.85
2018-11-02T22:35:09.841Z,4.12
2018-11-02T22:37:38.666Z,3.90
2018-11-02T22:40:09.085Z,3.92
2018-11-02T22:42:37.898Z,3.62
2018-11-02T22:45:07.183Z,4.25
2018-11-02T22:47:35.989Z,3.60
2018-11-02T22:50:05.796Z,3.60
2018-11-02T22:52:34.689Z,3.98
2018-11-02T22:55:03.663Z,4.05
2018-11-02T22:57:32.475Z,4.40
2018-11-02T23:00:01.228Z,3.45
2018-11-02T23:02:30.028Z,3.60
2018-11-02T23:04:58.810Z,3.52
2018-11-02T23:07:27.663Z,3.45
2018-11-02T23:09:56.464Z,3.37
2018-11-02T23:12:25.222Z,3.60
2018-11-02T23:14:54.033Z,3.50
2018-11-02T23:17:22.784Z,3.62
2018-11-02T23:19:51.658Z,3.12
2018-11-02T23:22:20.467Z,3.15
2018-11-02T23:24:49.299Z,3.17
2018-11-02T23:27:18.145Z,3.47
2018-11-02T23:29:47.018Z,3.62
2018-11-02T23:32:15.794Z,3.40
2018-11-02T23:34:44.692Z,3.60
2018-11-02T23:37:13.559Z,3.45
2018-11-02T23:39:42.311Z,3.45
2018-11-02T23:42:11.117Z,3.67
2018-11-02T23:44:39.939Z,3.65
2018-11-02T23:47:08.766Z,3.12
2018-11-02T23:49:37.509Z,3.35
2018-11-02T23:52:06.357Z,3.40
2018-11-02T23:54:35.196Z,3.72
2018-11-02T23:57:04.394Z,3.30
2018-11-02T23:59:33.232Z,3.45
